Time;durP1;ratioP1;P1;durP2;ratioP2;P2;SDS_P1;SDS_P2;PMS_P1;PMS_P2;Temp;Humidity;BMP_temperature;BMP_pressure;BME280_temperature;BME280_humidity;BME280_pressure;Samples;Min_cycle;Max_cycle;Signal;HPM_P1;HPM_P2
2022/06/26 00:00:26;;;;;;;18.23;10.13;;;;;;;;;;5078142;28;20020;-70
2022/06/26 00:02:51;;;;;;;15.20;9.13;;;;;;;;;;5067440;28;20623;-70
2022/06/26 00:05:16;;;;;;;12.13;8.17;;;;;;;;;;5070173;28;20282;-70
2022/06/26 00:07:41;;;;;;;15.75;10.25;;;;;;;;;;5066486;28;20346;-70
2022/06/26 00:10:07;;;;;;;17.97;9.63;;;;;;;;;;5076406;28;20052;-70
2022/06/26 00:12:33;;;;;;;18.58;10.35;;;;;;;;;;5072293;28;20266;-69
2022/06/26 00:14:58;;;;;;;21.45;11.23;;;;;;;;;;5069237;28;20035;-70
2022/06/26 00:17:23;;;;;;;17.40;10.13;;;;;;;;;;5057822;28;20061;-69
2022/06/26 00:19:48;;;;;;;18.73;11.07;;;;;;;;;;5069178;28;20783;-70
2022/06/26 00:22:13;;;;;;;15.73;10.93;;;;;;;;;;5070603;28;20271;-70
2022/06/26 00:24:41;;;;;;;17.33;11.05;;;;;;;;;;5075017;28;20325;-69
2022/06/26 00:27:06;;;;;;;27.65;11.75;;;;;;;;;;5069898;28;20017;-70
2022/06/26 00:29:34;;;;;;;18.50;11.13;;;;;;;;;;5072587;28;20656;-70
2022/06/26 00:32:00;;;;;;;24.13;10.88;;;;;;;;;;5070985;28;20753;-70
2022/06/26 00:34:26;;;;;;;19.13;10.57;;;;;;;;;;5068148;28;20032;-69
2022/06/26 00:36:51;;;;;;;18.30;11.30;;;;;;;;;;5073068;28;20039;-69
2022/06/26 00:39:16;;;;;;;16.40;9.67;;;;;;;;;;5077062;28;20023;-70
2022/06/26 00:41:41;;;;;;;18.20;9.60;;;;;;;;;;5073259;28;20323;-69
2022/06/26 00:44:16;;;;;;;16.02;9.35;;;;;;;;;;5069276;28;20291;-69
2022/06/26 00:46:42;;;;;;;18.83;9.60;;;;;;;;;;5069733;28;20480;-70
2022/06/26 00:49:07;;;;;;;14.25;9.77;;;;;;;;;;5064503;28;20051;-69
2022/06/26 00:51:34;;;;;;;16.30;10.27;;;;;;;;;;5075626;28;20507;-70
2022/06/26 00:53:59;;;;;;;18.02;9.35;;;;;;;;;;5069552;28;20039;-70
2022/06/26 00:56:24;;;;;;;12.65;9.25;;;;;;;;;;5057755;28;20025;-69
2022/06/26 00:58:49;;;;;;;19.97;10.43;;;;;;;;;;5069932;28;20038;-69
2022/06/26 01:01:15;;;;;;;14.57;9.27;;;;;;;;;;5068778;28;20638;-69
2022/06/26 01:03:41;;;;;;;17.98;10.45;;;;;;;;;;5059782;28;20044;-70
2022/06/26 01:06:07;;;;;;;17.63;11.20;;;;;;;;;;5074797;22;20124;-88
2022/06/26 01:08:33;;;;;;;17.50;11.35;;;;;;;;;;5042353;28;20044;-89
2022/06/26 01:10:59;;;;;;;23.45;10.90;;;;;;;;;;5036830;28;20043;-88
2022/06/26 01:13:24;;;;;;;18.27;10.27;;;;;;;;;;5061355;28;20540;-88
2022/06/26 01:15:51;;;;;;;17.00;10.60;;;;;;;;;;5040404;28;20021;-90
2022/06/26 01:18:16;;;;;;;21.55;10.48;;;;;;;;;;5057985;28;20048;-88
2022/06/26 01:20:41;;;;;;;23.02;10.95;;;;;;;;;;5064982;28;20017;-88
2022/06/26 01:23:07;;;;;;;16.05;10.35;;;;;;;;;;5063852;28;20017;-88
2022/06/26 01:25:48;;;;;;;22.85;11.40;;;;;;;;;;5047619;28;20012;-89
2022/06/26 01:28:14;;;;;;;21.60;11.57;;;;;;;;;;5048594;28;20017;-89
2022/06/26 01:30:39;;;;;;;19.95;12.23;;;;;;;;;;5040851;28;20052;-88
2022/06/26 01:33:05;;;;;;;23.15;11.20;;;;;;;;;;5049137;28;20492;-89
2022/06/26 01:35:31;;;;;;;22.35;12.73;;;;;;;;;;5050578;28;20059;-88
2022/06/26 01:38:06;;;;;;;21.70;10.95;;;;;;;;;;5061292;28;20021;-90
2022/06/26 01:40:31;;;;;;;19.25;12.30;;;;;;;;;;5042002;28;20028;-88
2022/06/26 01:42:57;;;;;;;29.85;13.23;;;;;;;;;;5044615;28;20013;-89
2022/06/26 01:45:22;;;;;;;18.98;11.20;;;;;;;;;;5042014;28;20016;-88
2022/06/26 01:47:47;;;;;;;17.02;13.18;;;;;;;;;;5043777;28;20021;-89
2022/06/26 01:50:12;;;;;;;29.90;13.93;;;;;;;;;;5069416;28;20020;-90
2022/06/26 01:52:38;;;;;;;19.98;13.57;;;;;;;;;;5063138;28;20271;-87
2022/06/26 01:55:03;;;;;;;19.50;12.35;;;;;;;;;;5051346;28;20017;-89
2022/06/26 01:57:28;;;;;;;19.20;13.70;;;;;;;;;;5065093;28;20078;-88
2022/06/26 01:59:57;;;;;;;19.67;13.88;;;;;;;;;;5046744;28;20527;-90
2022/06/26 02:02:31;;;;;;;23.58;13.45;;;;;;;;;;5056258;28;20408;-90
2022/06/26 02:04:58;;;;;;;29.58;14.77;;;;;;;;;;5041933;28;20029;-89
2022/06/26 02:08:00;;;;;;;;;;;;;;;;;;;;;
2022/06/26 02:15:57;;;;;;;24.92;14.77;;;;;;;;;;5048682;28;20126;-91
2022/06/26 02:18:26;;;;;;;20.10;13.57;;;;;;;;;;5043630;28;20107;-88
2022/06/26 02:20:51;;;;;;;23.83;12.93;;;;;;;;;;5033771;28;20215;-91
2022/06/26 02:23:20;;;;;;;24.92;13.38;;;;;;;;;;5061404;28;20104;-89
2022/06/26 02:25:49;;;;;;;23.13;13.43;;;;;;;;;;5033181;28;20021;-91
2022/06/26 02:28:16;;;;;;;21.45;13.18;;;;;;;;;;5037659;28;20033;-88
2022/06/26 02:30:44;;;;;;;22.85;13.20;;;;;;;;;;5060334;28;20021;-89
2022/06/26 02:33:13;;;;;;;20.67;13.63;;;;;;;;;;5046478;28;20028;-89
2022/06/26 02:35:38;;;;;;;22.00;13.15;;;;;;;;;;5043846;28;20036;-90
2022/06/26 02:38:13;;;;;;;19.33;13.02;;;;;;;;;;5037680;28;20425;-89
2022/06/26 02:40:38;;;;;;;25.20;14.07;;;;;;;;;;5042095;28;20359;-89
2022/06/26 02:43:09;;;;;;;22.25;13.50;;;;;;;;;;5064813;28;20077;-89
2022/06/26 02:45:35;;;;;;;23.70;14.23;;;;;;;;;;5039332;28;20119;-90
2022/06/26 02:48:00;;;;;;;21.48;12.98;;;;;;;;;;5067550;28;20066;-88
2022/06/26 02:50:25;;;;;;;19.07;13.47;;;;;;;;;;5052134;28;20020;-92
2022/06/26 02:52:50;;;;;;;22.25;13.00;;;;;;;;;;5050363;28;20270;-88
2022/06/26 02:55:15;;;;;;;27.27;12.43;;;;;;;;;;5044512;28;20024;-90
2022/06/26 02:57:41;;;;;;;21.33;13.38;;;;;;;;;;5045695;28;20295;-89
2022/06/26 03:00:07;;;;;;;21.00;14.30;;;;;;;;;;5047205;28;20021;-90
2022/06/26 03:02:32;;;;;;;25.45;14.95;;;;;;;;;;5041890;28;20266;-90
2022/06/26 03:04:57;;;;;;;21.27;14.32;;;;;;;;;;5063144;28;20029;-91
2022/06/26 03:07:23;;;;;;;24.37;14.67;;;;;;;;;;5046308;28;20499;-88
2022/06/26 03:09:48;;;;;;;19.95;13.02;;;;;;;;;;5043949;28;20267;-89
2022/06/26 03:12:14;;;;;;;22.88;14.60;;;;;;;;;;5051056;28;20020;-88
2022/06/26 03:14:39;;;;;;;23.50;13.38;;;;;;;;;;5065379;28;20023;-91
2022/06/26 03:17:04;;;;;;;20.10;12.52;;;;;;;;;;5046162;28;20463;-89
2022/06/26 03:19:30;;;;;;;25.63;13.45;;;;;;;;;;5046847;28;20028;-89
2022/06/26 03:21:55;;;;;;;29.13;13.07;;;;;;;;;;5071150;28;20048;-88
2022/06/26 03:24:20;;;;;;;27.85;14.70;;;;;;;;;;5054180;28;20021;-90
2022/06/26 03:26:46;;;;;;;20.08;13.60;;;;;;;;;;5050354;28;20064;-88
2022/06/26 03:29:11;;;;;;;25.52;13.82;;;;;;;;;;5040118;28;20079;-89
2022/06/26 03:31:37;;;;;;;21.85;14.82;;;;;;;;;;5049585;28;20499;-91
2022/06/26 03:34:02;;;;;;;19.52;13.65;;;;;;;;;;5068948;28;20416;-89
2022/06/26 03:36:30;;;;;;;27.23;14.10;;;;;;;;;;5041540;28;20036;-88
2022/06/26 03:38:56;;;;;;;18.95;13.77;;;;;;;;;;5039612;28;20563;-89
2022/06/26 03:41:21;;;;;;;24.48;14.52;;;;;;;;;;5041936;28;20028;-91
2022/06/26 03:43:46;;;;;;;21.52;13.80;;;;;;;;;;5046086;28;20047;-90
2022/06/26 03:46:12;;;;;;;20.98;13.82;;;;;;;;;;5047769;28;20029;-89
2022/06/26 03:48:37;;;;;;;26.63;14.98;;;;;;;;;;5057872;28;20070;-90
2022/06/26 03:51:03;;;;;;;23.23;14.88;;;;;;;;;;5053524;28;20020;-89
2022/06/26 03:53:28;;;;;;;22.38;12.98;;;;;;;;;;5045549;28;20083;-90
2022/06/26 03:55:54;;;;;;;24.48;13.48;;;;;;;;;;5054021;28;20023;-89
2022/06/26 03:58:19;;;;;;;20.30;12.70;;;;;;;;;;5060163;28;20021;-89
2022/06/26 04:00:44;;;;;;;20.63;12.57;;;;;;;;;;5046556;28;20024;-89
2022/06/26 04:03:09;;;;;;;31.35;11.63;;;;;;;;;;5046340;28;20067;-89
2022/06/26 04:05:35;;;;;;;20.23;10.95;;;;;;;;;;5044882;28;20488;-89
2022/06/26 04:08:01;;;;;;;17.17;9.40;;;;;;;;;;5052120;28;20071;-90
2022/06/26 04:10:26;;;;;;;16.52;9.52;;;;;;;;;;5064497;28;20008;-90
2022/06/26 04:12:51;;;;;;;16.25;8.20;;;;;;;;;;5049060;28;20021;-90
2022/06/26 04:15:17;;;;;;;13.30;8.77;;;;;;;;;;5050997;28;20709;-89
2022/06/26 04:17:42;;;;;;;15.27;8.40;;;;;;;;;;5042946;28;20028;-90
2022/06/26 04:20:08;;;;;;;17.73;8.02;;;;;;;;;;5051240;28;20062;-88
2022/06/26 04:22:33;;;;;;;15.45;7.82;;;;;;;;;;5044390;28;20021;-89
2022/06/26 04:24:58;;;;;;;11.32;6.45;;;;;;;;;;5064641;28;20084;-91
2022/06/26 04:27:23;;;;;;;12.53;7.67;;;;;;;;;;5047012;28;20128;-89
2022/06/26 04:29:49;;;;;;;12.43;7.13;;;;;;;;;;5055182;28;20271;-90
2022/06/26 04:32:14;;;;;;;15.32;7.43;;;;;;;;;;5070031;28;20278;-89
2022/06/26 04:34:39;;;;;;;16.05;6.97;;;;;;;;;;5048545;28;20396;-90
2022/06/26 04:37:05;;;;;;;12.45;6.32;;;;;;;;;;5041252;28;20384;-90
2022/06/26 04:39:30;;;;;;;11.43;4.67;;;;;;;;;;5056795;28;20075;-90
2022/06/26 04:41:55;;;;;;;11.18;4.38;;;;;;;;;;5048606;28;20276;-91
2022/06/26 04:44:20;;;;;;;9.35;4.15;;;;;;;;;;5063796;28;20025;-90
2022/06/26 04:46:49;;;;;;;8.43;5.18;;;;;;;;;;5041560;28;20473;-90
2022/06/26 04:49:14;;;;;;;7.25;3.80;;;;;;;;;;5040878;28;20017;-89
2022/06/26 04:51:39;;;;;;;10.30;3.75;;;;;;;;;;5043100;28;20008;-92
2022/06/26 04:54:06;;;;;;;17.83;5.65;;;;;;;;;;5050747;28;20516;-91
2022/06/26 04:56:31;;;;;;;9.20;3.63;;;;;;;;;;5040222;28;20050;-92
2022/06/26 04:58:58;;;;;;;4.53;3.30;;;;;;;;;;5049191;28;20600;-91
2022/06/26 05:01:26;;;;;;;10.18;3.60;;;;;;;;;;5049433;28;20035;-92
2022/06/26 05:03:54;;;;;;;8.80;3.50;;;;;;;;;;5074709;28;20021;-92
2022/06/26 05:06:20;;;;;;;10.40;3.72;;;;;;;;;;5055877;28;20025;-94
2022/06/26 05:08:47;;;;;;;7.57;2.92;;;;;;;;;;5049347;28;20017;-94
2022/06/26 05:11:35;;;;;;;7.38;3.33;;;;;;;;;;5071568;28;20024;-93
2022/06/26 05:14:04;;;;;;;10.18;3.47;;;;;;;;;;5068742;28;20017;-93
2022/06/26 05:16:50;;;;;;;7.72;3.10;;;;;;;;;;5049884;28;20085;-93
2022/06/26 05:19:46;;;;;;;;;;;;;;;;;;;;;
2022/06/26 05:22:22;;;;;;;;;;;;;;;;;;;;;
2022/06/26 05:24:49;;;;;;;4.38;2.67;;;;;;;;;;5072111;28;20119;-93
2022/06/26 05:33:40;;;;;;;7.20;2.83;;;;;;;;;;4978456;28;20502;-91
2022/06/26 05:36:27;;;;;;;;;;;;;;;;;;;;;
2022/06/26 05:42:10;;;;;;;5.00;2.95;;;;;;;;;;5055074;28;20017;-91
2022/06/26 05:44:59;;;;;;;3.80;2.60;;;;;;;;;;5063586;28;20029;-94
2022/06/26 05:48:33;;;;;;;4.15;2.25;;;;;;;;;;5044446;28;20036;-92
2022/06/26 05:50:40;;;;;;;4.95;2.33;;;;;;;;;;5058572;28;20024;-94
2022/06/26 05:53:17;;;;;;;10.90;2.50;;;;;;;;;;5049861;28;20031;-91
2022/06/26 05:55:55;;;;;;;5.85;2.25;;;;;;;;;;5039128;28;20017;-93
2022/06/26 05:58:36;;;;;;;5.57;2.35;;;;;;;;;;5067937;28;20059;-93
2022/06/26 06:01:17;;;;;;;;;;;;;;;;;;;;;
2022/06/26 06:03:49;;;;;;;5.97;2.50;;;;;;;;;;5053713;28;20045;-91
2022/06/26 06:06:28;;;;;;;4.93;1.75;;;;;;;;;;5063633;28;20029;-92
2022/06/26 06:11:45;;;;;;;3.65;1.90;;;;;;;;;;5035883;28;20134;-93
2022/06/26 06:14:10;;;;;;;3.72;2.33;;;;;;;;;;5058640;28;20033;-92
2022/06/26 06:16:37;;;;;;;4.88;1.83;;;;;;;;;;5040830;28;20044;-91
2022/06/26 06:19:36;;;;;;;3.92;1.80;;;;;;;;;;5052107;28;20092;-92
2022/06/26 06:22:16;;;;;;;3.92;1.83;;;;;;;;;;5047639;28;20029;-93
2022/06/26 06:24:42;;;;;;;5.40;2.30;;;;;;;;;;5043876;28;20436;-92
2022/06/26 06:27:17;;;;;;;6.18;2.10;;;;;;;;;;5039460;28;20040;-92
2022/06/26 06:29:42;;;;;;;5.10;2.20;;;;;;;;;;5040883;28;20021;-92
2022/06/26 06:32:08;;;;;;;7.10;1.92;;;;;;;;;;5040892;28;20572;-92
2022/06/26 06:34:34;;;;;;;7.90;2.05;;;;;;;;;;5044584;28;20389;-92
2022/06/26 06:37:08;;;;;;;10.45;2.33;;;;;;;;;;5050503;28;20024;-93
2022/06/26 06:39:41;;;;;;;4.30;1.92;;;;;;;;;;5081566;23;20086;-92
2022/06/26 06:42:28;;;;;;;4.55;2.22;;;;;;;;;;5060065;28;20024;-92
2022/06/26 06:44:58;;;;;;;6.38;3.30;;;;;;;;;;5044964;28;20025;-93
2022/06/26 06:47:42;;;;;;;;;;;;;;;;;;;;;
2022/06/26 06:50:21;;;;;;;8.57;3.03;;;;;;;;;;5065008;28;20021;-93
2022/06/26 06:53:25;;;;;;;8.57;3.22;;;;;;;;;;5045217;28;20096;-92
2022/06/26 06:56:20;;;;;;;6.72;2.10;;;;;;;;;;5053058;28;20032;-92
2022/06/26 06:58:54;;;;;;;4.07;2.03;;;;;;;;;;4969218;28;20023;-91
2022/06/26 07:03:52;;;;;;;5.18;1.77;;;;;;;;;;5023256;28;20049;-66
2022/06/26 07:06:17;;;;;;;2.97;1.70;;;;;;;;;;5029307;28;20018;-68
2022/06/26 07:08:42;;;;;;;5.03;2.37;;;;;;;;;;5023706;28;20261;-68
2022/06/26 07:11:08;;;;;;;6.27;2.13;;;;;;;;;;5029658;28;20339;-68
2022/06/26 07:13:33;;;;;;;4.55;1.80;;;;;;;;;;5022698;28;20267;-66
2022/06/26 07:15:58;;;;;;;5.72;1.33;;;;;;;;;;5028911;28;20024;-66
2022/06/26 07:18:24;;;;;;;4.93;1.02;;;;;;;;;;5025898;28;20036;-66
2022/06/26 07:20:49;;;;;;;4.40;1.55;;;;;;;;;;5029450;28;20025;-67
2022/06/26 07:23:14;;;;;;;5.63;1.13;;;;;;;;;;5023016;28;20060;-66
2022/06/26 07:25:40;;;;;;;7.57;2.60;;;;;;;;;;5028745;28;20508;-66
2022/06/26 07:28:05;;;;;;;7.03;2.13;;;;;;;;;;5031167;28;20014;-66
2022/06/26 07:30:31;;;;;;;7.13;1.80;;;;;;;;;;5028570;28;20521;-66
2022/06/26 07:32:56;;;;;;;7.07;1.90;;;;;;;;;;5030867;28;20275;-66
2022/06/26 07:35:22;;;;;;;5.57;1.75;;;;;;;;;;5031748;28;20017;-67
2022/06/26 07:37:47;;;;;;;3.17;1.70;;;;;;;;;;5029231;28;20462;-66
2022/06/26 07:40:12;;;;;;;12.25;2.53;;;;;;;;;;5026345;28;20598;-66
2022/06/26 07:42:38;;;;;;;6.25;1.55;;;;;;;;;;5031046;28;20029;-66
2022/06/26 07:45:03;;;;;;;7.70;1.77;;;;;;;;;;5032196;28;20036;-66
2022/06/26 07:47:28;;;;;;;5.43;2.65;;;;;;;;;;5029949;28;20372;-66
2022/06/26 07:49:54;;;;;;;3.00;1.57;;;;;;;;;;5030337;28;20029;-66
2022/06/26 07:52:19;;;;;;;5.18;1.88;;;;;;;;;;5031085;28;20013;-66
2022/06/26 07:54:45;;;;;;;6.97;1.57;;;;;;;;;;5027228;28;20039;-66
2022/06/26 07:57:10;;;;;;;7.07;1.88;;;;;;;;;;5028676;28;20775;-66
2022/06/26 07:59:35;;;;;;;8.10;1.53;;;;;;;;;;5029172;28;20388;-67
2022/06/26 08:02:00;;;;;;;7.28;1.80;;;;;;;;;;5027122;28;20342;-67
2022/06/26 08:04:25;;;;;;;3.80;2.60;;;;;;;;;;5032138;28;20462;-68
2022/06/26 08:06:51;;;;;;;6.15;1.58;;;;;;;;;;5027387;28;20018;-68
2022/06/26 08:09:16;;;;;;;7.53;1.50;;;;;;;;;;5026707;28;20729;-68
2022/06/26 08:11:41;;;;;;;4.93;2.00;;;;;;;;;;5024997;28;20260;-68
2022/06/26 08:14:07;;;;;;;4.97;1.85;;;;;;;;;;5029526;28;20288;-67
2022/06/26 08:16:32;;;;;;;3.78;1.45;;;;;;;;;;5029799;28;20021;-67
2022/06/26 08:18:57;;;;;;;4.90;1.85;;;;;;;;;;5030503;28;20064;-67
2022/06/26 08:24:06;;;;;;;4.03;1.77;;;;;;;;;;5030802;28;20291;-67
2022/06/26 08:26:31;;;;;;;5.85;1.90;;;;;;;;;;5027564;28;20104;-67
2022/06/26 08:28:56;;;;;;;3.47;1.50;;;;;;;;;;5026998;28;20117;-67
2022/06/26 08:31:22;;;;;;;9.33;2.80;;;;;;;;;;5031220;28;20041;-67
2022/06/26 08:33:47;;;;;;;7.90;1.60;;;;;;;;;;5025643;28;20276;-67
2022/06/26 08:36:12;;;;;;;10.87;2.40;;;;;;;;;;5025853;28;20098;-67
2022/06/26 08:38:39;;;;;;;5.37;1.67;;;;;;;;;;5027384;28;20283;-67
2022/06/26 08:41:06;;;;;;;4.88;1.67;;;;;;;;;;5017347;28;20265;-67
2022/06/26 08:43:32;;;;;;;4.68;2.33;;;;;;;;;;5014483;28;20025;-68
2022/06/26 08:45:58;;;;;;;5.15;1.70;;;;;;;;;;5019026;28;20519;-67
2022/06/26 08:48:27;;;;;;;5.40;2.15;;;;;;;;;;5026267;28;20113;-67
2022/06/26 08:50:53;;;;;;;4.40;1.73;;;;;;;;;;5026620;28;20075;-67
2022/06/26 08:53:19;;;;;;;6.35;1.40;;;;;;;;;;5025969;28;20023;-67
2022/06/26 08:55:44;;;;;;;2.95;1.10;;;;;;;;;;5026004;28;20087;-67
2022/06/26 08:58:09;;;;;;;5.20;1.20;;;;;;;;;;5028363;28;20025;-67
2022/06/26 09:00:35;;;;;;;3.38;1.30;;;;;;;;;;5024985;28;20272;-67
2022/06/26 09:03:00;;;;;;;7.32;1.77;;;;;;;;;;5026346;28;20033;-67
2022/06/26 09:05:25;;;;;;;2.90;1.58;;;;;;;;;;5021264;28;20674;-68
2022/06/26 09:07:52;;;;;;;5.05;2.05;;;;;;;;;;5027881;28;20547;-67
2022/06/26 09:10:18;;;;;;;4.38;2.13;;;;;;;;;;5026163;28;20037;-67
2022/06/26 09:12:49;;;;;;;5.15;1.85;;;;;;;;;;5027426;28;20018;-67
2022/06/26 09:15:15;;;;;;;3.75;1.45;;;;;;;;;;5026783;28;20112;-67
2022/06/26 09:17:41;;;;;;;2.78;1.10;;;;;;;;;;5024278;28;20616;-68
2022/06/26 09:20:07;;;;;;;4.43;1.90;;;;;;;;;;5025919;28;20018;-67
2022/06/26 09:22:32;;;;;;;4.13;1.55;;;;;;;;;;5024222;28;20281;-68
2022/06/26 09:24:58;;;;;;;4.43;1.70;;;;;;;;;;5027405;28;20041;-67
2022/06/26 09:27:24;;;;;;;5.10;1.50;;;;;;;;;;5027136;28;20367;-67
2022/06/26 09:29:50;;;;;;;2.15;0.98;;;;;;;;;;5026218;28;20167;-68
2022/06/26 09:32:15;;;;;;;6.97;1.30;;;;;;;;;;5023733;28;20025;-68
2022/06/26 09:34:51;;;;;;;9.70;1.63;;;;;;;;;;5026265;28;20118;-68
2022/06/26 09:37:17;;;;;;;5.00;1.50;;;;;;;;;;5026557;28;20038;-68
2022/06/26 09:39:42;;;;;;;6.30;1.33;;;;;;;;;;5026219;28;20032;-67
2022/06/26 09:42:13;;;;;;;4.20;1.33;;;;;;;;;;5026557;28;20014;-67
2022/06/26 09:44:47;;;;;;;2.38;1.15;;;;;;;;;;5026279;28;20483;-67
2022/06/26 09:47:23;;;;;;;3.20;1.30;;;;;;;;;;5024659;28;20083;-67
2022/06/26 09:49:49;;;;;;;2.78;1.75;;;;;;;;;;5023916;28;20029;-68
2022/06/26 09:52:14;;;;;;;2.22;1.30;;;;;;;;;;5026799;28;20080;-68
2022/06/26 09:54:40;;;;;;;3.78;1.38;;;;;;;;;;5026684;28;20434;-68
2022/06/26 09:57:05;;;;;;;4.88;1.50;;;;;;;;;;5027271;28;20026;-68
2022/06/26 09:59:32;;;;;;;6.97;1.90;;;;;;;;;;5025264;28;20045;-67
2022/06/26 10:07:25;;;;;;;4.88;1.50;;;;;;;;;;5023118;28;20106;-67
2022/06/26 10:09:50;;;;;;;3.08;1.20;;;;;;;;;;5025115;28;20527;-68
2022/06/26 10:12:17;;;;;;;9.27;1.95;;;;;;;;;;5026279;28;20013;-68
2022/06/26 10:14:43;;;;;;;2.60;1.25;;;;;;;;;;5026291;28;20133;-68
2022/06/26 10:17:26;;;;;;;3.05;1.17;;;;;;;;;;5029051;28;20390;-68
2022/06/26 10:19:54;;;;;;;3.72;1.60;;;;;;;;;;5029654;28;20028;-68
2022/06/26 10:22:19;;;;;;;6.07;1.80;;;;;;;;;;5026739;28;20095;-68
2022/06/26 10:25:00;;;;;;;4.85;1.52;;;;;;;;;;5023097;28;20057;-68
2022/06/26 10:27:27;;;;;;;5.30;1.73;;;;;;;;;;5024747;28;20018;-68
2022/06/26 10:30:07;;;;;;;4.13;1.75;;;;;;;;;;5026721;28;20020;-68
2022/06/26 10:32:32;;;;;;;4.63;1.85;;;;;;;;;;5027433;28;20014;-68
2022/06/26 10:34:57;;;;;;;2.90;1.45;;;;;;;;;;5022978;28;20588;-68
2022/06/26 10:37:22;;;;;;;4.15;1.63;;;;;;;;;;5022903;28;20030;-68
2022/06/26 10:39:52;;;;;;;2.58;1.65;;;;;;;;;;5028771;28;20428;-68
2022/06/26 10:45:07;;;;;;;;;;;;;;;;;;5027681;28;20123;-68
2022/06/26 10:47:43;;;;;;;4.37;1.43;;;;;;;;;;5022155;28;19999;-68
2022/06/26 10:50:21;;;;;;;4.22;1.77;;;;;;;;;;5011134;28;20021;-68
2022/06/26 10:52:46;;;;;;;4.07;1.42;;;;;;;;;;5026978;28;20059;-67
2022/06/26 10:55:11;;;;;;;3.38;1.35;;;;;;;;;;5028164;28;20104;-67
2022/06/26 10:57:38;;;;;;;8.57;1.90;;;;;;;;;;5028152;28;20133;-67
2022/06/26 11:00:05;;;;;;;2.33;1.40;;;;;;;;;;5030170;28;20260;-67
2022/06/26 11:02:36;;;;;;;2.83;1.35;;;;;;;;;;5026933;28;20048;-67
2022/06/26 11:05:02;;;;;;;2.42;1.20;;;;;;;;;;5027754;28;20078;-67
2022/06/26 11:07:28;;;;;;;2.70;1.77;;;;;;;;;;5029653;28;20028;-67
2022/06/26 11:09:56;;;;;;;2.92;1.67;;;;;;;;;;5030513;28;20026;-67
2022/06/26 11:12:22;;;;;;;4.65;1.88;;;;;;;;;;5026708;28;20069;-67
2022/06/26 11:14:47;;;;;;;3.50;1.93;;;;;;;;;;5031595;28;20085;-67
2022/06/26 11:17:12;;;;;;;2.88;1.45;;;;;;;;;;5031411;28;20938;-68
2022/06/26 11:22:21;;;;;;;5.00;1.52;;;;;;;;;;5026966;28;20102;-67
2022/06/26 11:24:54;;;;;;;4.50;1.48;;;;;;;;;;5029849;28;20123;-67
2022/06/26 11:27:23;;;;;;;3.70;1.75;;;;;;;;;;5031462;28;20018;-67
2022/06/26 11:29:48;;;;;;;2.92;1.58;;;;;;;;;;5026694;28;20482;-67
2022/06/26 11:32:13;;;;;;;3.83;1.40;;;;;;;;;;5028376;28;20350;-68
2022/06/26 11:34:48;;;;;;;5.00;1.98;;;;;;;;;;5030157;28;20048;-68
2022/06/26 11:37:13;;;;;;;7.70;1.80;;;;;;;;;;5031940;28;20029;-71
2022/06/26 11:39:39;;;;;;;2.85;1.38;;;;;;;;;;5029565;28;20071;-68
2022/06/26 11:42:18;;;;;;;7.47;1.67;;;;;;;;;;5029690;28;20523;-68
2022/06/26 11:44:49;;;;;;;5.13;1.92;;;;;;;;;;5026203;28;20026;-68
2022/06/26 11:47:15;;;;;;;7.97;2.17;;;;;;;;;;5029669;28;20022;-68
2022/06/26 11:49:40;;;;;;;4.97;2.13;;;;;;;;;;5032185;28;20092;-68
2022/06/26 11:52:06;;;;;;;3.03;2.23;;;;;;;;;;5025059;28;20013;-67
2022/06/26 11:54:31;;;;;;;3.53;1.77;;;;;;;;;;5028338;28;20053;-68
2022/06/26 11:56:57;;;;;;;7.53;2.07;;;;;;;;;;5028349;28;20030;-67
2022/06/26 11:59:22;;;;;;;3.73;1.87;;;;;;;;;;5031525;28;20760;-67
2022/06/26 12:01:47;;;;;;;8.75;2.63;;;;;;;;;;5029370;28;20280;-67
2022/06/26 12:04:12;;;;;;;4.20;2.10;;;;;;;;;;5030748;28;20030;-67
2022/06/26 12:06:40;;;;;;;4.90;2.07;;;;;;;;;;5030979;28;20272;-67
2022/06/26 12:09:15;;;;;;;5.47;1.73;;;;;;;;;;5013295;28;20296;-67
2022/06/26 12:11:42;;;;;;;2.90;1.70;;;;;;;;;;5027451;28;21192;-68
2022/06/26 12:14:11;;;;;;;4.15;1.85;;;;;;;;;;5029223;28;20540;-68
2022/06/26 12:16:43;;;;;;;8.55;1.70;;;;;;;;;;5027519;28;20033;-67
2022/06/26 12:19:08;;;;;;;7.63;1.92;;;;;;;;;;5031935;28;20108;-67
2022/06/26 12:21:33;;;;;;;5.53;1.90;;;;;;;;;;5025438;28;20414;-67
2022/06/26 12:23:59;;;;;;;3.73;1.60;;;;;;;;;;5029063;28;20284;-67
2022/06/26 12:26:24;;;;;;;5.13;2.20;;;;;;;;;;5028904;28;20018;-67
2022/06/26 12:28:50;;;;;;;3.23;1.60;;;;;;;;;;5027860;28;20024;-67
2022/06/26 12:31:17;;;;;;;3.70;1.98;;;;;;;;;;5027577;28;20152;-67
2022/06/26 12:33:42;;;;;;;2.95;1.73;;;;;;;;;;5029923;28;20045;-68
2022/06/26 12:36:08;;;;;;;6.95;2.33;;;;;;;;;;5028981;28;20102;-67
2022/06/26 12:38:34;;;;;;;7.75;1.90;;;;;;;;;;5030452;28;20463;-67
2022/06/26 12:41:00;;;;;;;4.20;1.80;;;;;;;;;;5028264;28;20028;-67
2022/06/26 12:43:25;;;;;;;5.38;2.30;;;;;;;;;;5030305;28;20378;-68
2022/06/26 12:45:50;;;;;;;4.60;1.80;;;;;;;;;;5029399;28;20397;-67
2022/06/26 12:48:15;;;;;;;4.17;2.00;;;;;;;;;;5031282;28;20021;-68
2022/06/26 12:50:41;;;;;;;3.63;2.10;;;;;;;;;;5026538;28;20014;-68
2022/06/26 12:53:06;;;;;;;4.25;2.05;;;;;;;;;;5029239;28;20067;-68
2022/06/26 12:55:31;;;;;;;4.82;1.85;;;;;;;;;;5024606;28;20036;-67
2022/06/26 12:57:56;;;;;;;6.70;2.87;;;;;;;;;;5031196;28;20041;-67
2022/06/26 13:00:22;;;;;;;4.68;2.22;;;;;;;;;;5064557;23;20323;-67
2022/06/26 13:02:47;;;;;;;3.40;2.10;;;;;;;;;;5046670;28;20409;-69
2022/06/26 13:05:12;;;;;;;5.53;2.17;;;;;;;;;;5044992;28;20789;-68
2022/06/26 13:07:37;;;;;;;2.92;1.90;;;;;;;;;;5043308;28;20366;-68
2022/06/26 13:10:03;;;;;;;5.17;2.30;;;;;;;;;;5058586;28;20385;-67
2022/06/26 13:12:28;;;;;;;4.97;2.45;;;;;;;;;;5056714;28;20355;-68
2022/06/26 13:14:53;;;;;;;5.00;2.30;;;;;;;;;;5060766;28;20106;-68
2022/06/26 13:17:18;;;;;;;5.25;2.92;;;;;;;;;;5059664;28;20056;-68
2022/06/26 13:19:43;;;;;;;4.70;2.43;;;;;;;;;;5061403;28;20061;-68
2022/06/26 13:22:09;;;;;;;4.20;2.37;;;;;;;;;;5069614;28;20460;-68
2022/06/26 13:24:34;;;;;;;5.57;2.80;;;;;;;;;;5062432;28;20310;-68
2022/06/26 13:26:59;;;;;;;7.90;2.97;;;;;;;;;;5060243;28;20361;-68
2022/06/26 13:29:24;;;;;;;8.63;2.72;;;;;;;;;;5062231;28;20040;-68
2022/06/26 13:31:51;;;;;;;4.83;2.43;;;;;;;;;;5062374;28;20051;-68
2022/06/26 13:34:17;;;;;;;4.47;2.40;;;;;;;;;;5056431;28;20279;-68
2022/06/26 13:36:42;;;;;;;7.45;2.75;;;;;;;;;;5062764;28;20066;-68
2022/06/26 13:39:07;;;;;;;4.78;2.60;;;;;;;;;;5067137;28;20233;-68
2022/06/26 13:41:32;;;;;;;7.47;3.37;;;;;;;;;;5066547;28;20492;-68
2022/06/26 13:43:58;;;;;;;4.03;2.50;;;;;;;;;;5054549;28;20290;-68
2022/06/26 13:46:23;;;;;;;9.85;2.72;;;;;;;;;;5060041;28;20016;-68
2022/06/26 13:48:48;;;;;;;3.60;2.40;;;;;;;;;;5059935;28;20036;-68
2022/06/26 13:51:13;;;;;;;5.53;2.37;;;;;;;;;;5054846;28;20114;-68
2022/06/26 13:53:39;;;;;;;5.15;2.90;;;;;;;;;;5060693;28;20116;-68
2022/06/26 13:56:04;;;;;;;8.93;2.57;;;;;;;;;;5062062;28;20154;-68
2022/06/26 13:58:30;;;;;;;6.25;2.83;;;;;;;;;;5052378;28;20873;-68
2022/06/26 14:00:55;;;;;;;4.75;2.33;;;;;;;;;;5057723;28;20104;-67
2022/06/26 14:03:20;;;;;;;5.53;2.37;;;;;;;;;;5062094;28;20020;-68
2022/06/26 14:05:45;;;;;;;4.50;2.15;;;;;;;;;;5061776;28;20604;-68
2022/06/26 14:08:11;;;;;;;6.20;2.17;;;;;;;;;;5062397;28;20017;-68
2022/06/26 14:10:36;;;;;;;5.17;2.10;;;;;;;;;;5039212;28;20082;-68
2022/06/26 14:13:03;;;;;;;5.72;2.50;;;;;;;;;;5056166;28;20436;-68
2022/06/26 14:15:28;;;;;;;3.85;2.15;;;;;;;;;;5061812;28;20024;-68
2022/06/26 14:17:53;;;;;;;4.85;2.80;;;;;;;;;;5066926;28;20017;-68
2022/06/26 14:20:19;;;;;;;4.73;3.20;;;;;;;;;;5049859;28;20484;-68
2022/06/26 14:28:11;;;;;;;7.78;3.90;;;;;;;;;;5064254;28;20504;-70
2022/06/26 14:30:37;;;;;;;7.10;3.25;;;;;;;;;;5060415;28;20021;-69
2022/06/26 14:33:02;;;;;;;5.77;3.07;;;;;;;;;;5061872;28;20024;-69
2022/06/26 14:35:28;;;;;;;5.53;3.35;;;;;;;;;;5060262;28;20289;-69
2022/06/26 14:37:53;;;;;;;6.45;3.40;;;;;;;;;;5065983;28;20024;-68
2022/06/26 14:40:18;;;;;;;4.57;2.85;;;;;;;;;;5064756;28;20025;-69
2022/06/26 14:42:44;;;;;;;13.47;3.67;;;;;;;;;;5068686;28;20303;-70
2022/06/26 14:45:09;;;;;;;10.23;3.10;;;;;;;;;;5063220;28;20279;-70
2022/06/26 14:47:35;;;;;;;8.38;3.58;;;;;;;;;;5071944;28;20427;-69
2022/06/26 14:50:01;;;;;;;9.53;3.30;;;;;;;;;;5061917;28;20025;-70
2022/06/26 14:52:26;;;;;;;5.03;2.90;;;;;;;;;;5063177;28;20731;-70
2022/06/26 14:54:51;;;;;;;7.30;3.28;;;;;;;;;;5065122;28;20028;-70
2022/06/26 14:57:17;;;;;;;8.70;3.50;;;;;;;;;;5069525;28;20307;-70
2022/06/26 14:59:42;;;;;;;8.68;3.40;;;;;;;;;;5071332;28;20274;-71
2022/06/26 15:02:08;;;;;;;5.83;3.50;;;;;;;;;;5062349;28;20439;-68
2022/06/26 15:04:33;;;;;;;6.47;3.28;;;;;;;;;;5065775;28;20106;-69
2022/06/26 15:06:59;;;;;;;7.28;3.53;;;;;;;;;;5063502;28;20029;-68
2022/06/26 15:09:24;;;;;;;7.38;3.13;;;;;;;;;;5069228;28;20017;-69
2022/06/26 15:11:49;;;;;;;8.73;3.70;;;;;;;;;;5060607;28;20407;-68
2022/06/26 15:14:14;;;;;;;5.93;3.57;;;;;;;;;;5064783;28;20302;-69
2022/06/26 15:16:39;;;;;;;8.85;4.43;;;;;;;;;;5058874;28;20282;-69
2022/06/26 15:19:05;;;;;;;5.43;3.33;;;;;;;;;;5062850;28;20036;-69
2022/06/26 15:21:30;;;;;;;5.68;3.33;;;;;;;;;;5060976;28;20021;-69